Time;durP1;ratioP1;P1;durP2;ratioP2;P2;SDS_P1;SDS_P2;PMS_P1;PMS_P2;Temp;Humidity;BMP_temperature;BMP_pressure;BME280_temperature;BME280_humidity;BME280_pressure;Samples;Min_cycle;Max_cycle;Signal;HPM_P1;HPM_P2
2021/11/12 00:14:49;;;;;;;107.78;57.65;;;;;;;5.19;91.03;101278.59;1636949;86;25830;-86
2021/11/12 00:17:19;;;;;;;114.12;59.73;;;;;;;5.19;91.02;101277.27;1637837;85;25842;-85
2021/11/12 00:19:47;;;;;;;112.97;55.67;;;;;;;5.20;91.06;101275.80;1638506;85;26238;-86
2021/11/12 00:22:14;;;;;;;116.03;59.98;;;;;;;5.22;91.27;101275.17;1669431;85;27426;-86
2021/11/12 00:24:41;;;;;;;113.97;60.67;;;;;;;5.21;91.22;101274.83;1607340;85;25422;-86
2021/11/12 00:27:09;;;;;;;113.85;58.15;;;;;;;5.25;91.36;101272.73;1647312;85;25970;-86
2021/11/12 00:29:54;;;;;;;111.15;57.30;;;;;;;5.27;91.45;101268.97;1639513;86;25831;-86
2021/11/12 00:32:29;;;;;;;116.28;58.95;;;;;;;5.28;91.50;101270.63;1655656;86;25373;-86
2021/11/12 00:35:08;;;;;;;121.82;59.85;;;;;;;5.30;91.57;101269.19;1607396;86;28262;-85
2021/11/12 00:40:20;;;;;;;118.20;60.90;;;;;;;5.30;91.74;101272.66;1645136;85;26600;-85
2021/11/12 00:45:31;;;;;;;112.03;57.62;;;;;;;5.36;91.76;101269.48;1624869;85;25455;-87
2021/11/12 00:48:10;;;;;;;111.00;56.60;;;;;;;5.39;91.91;101276.31;1646897;85;27537;-86
2021/11/12 00:50:40;;;;;;;120.30;57.67;;;;;;;5.40;91.99;101272.70;1639336;86;26409;-86
2021/11/12 00:55:29;;;;;;;120.28;57.67;;;;;;;5.41;92.40;101271.22;1650314;84;26066;-86
2021/11/12 00:57:58;;;;;;;114.77;56.48;;;;;;;5.42;92.28;101269.41;1663426;85;25921;-86
2021/11/12 01:00:26;;;;;;;110.35;54.55;;;;;;;5.43;92.42;101273.25;1613532;87;27515;-86
2021/11/12 01:02:54;;;;;;;125.18;63.05;;;;;;;5.42;92.58;101270.26;1678743;84;25409;-86
2021/11/12 01:05:21;;;;;;;110.08;57.65;;;;;;;5.40;92.59;101273.55;1648321;85;26020;-87
2021/11/12 01:07:48;;;;;;;116.37;58.20;;;;;;;5.43;92.69;101279.08;1596907;85;25834;-87
2021/11/12 01:10:17;;;;;;;111.70;58.38;;;;;;;5.46;92.70;101276.98;1660840;84;25901;-86
2021/11/12 01:12:44;;;;;;;125.38;59.98;;;;;;;5.47;92.80;101264.03;1695605;84;28634;-86
2021/11/12 01:15:15;;;;;;;133.60;61.83;;;;;;;5.49;92.85;101270.55;1621495;86;25937;-85
2021/11/12 01:17:44;;;;;;;119.72;57.53;;;;;;;5.49;93.02;101270.55;1629136;86;25940;-86
2021/11/12 01:20:14;;;;;;;120.13;58.28;;;;;;;5.48;93.02;101270.19;1607174;86;25714;-86
2021/11/12 01:22:42;;;;;;;121.80;63.17;;;;;;;5.51;93.10;101278.38;1655785;85;26102;-86
2021/11/12 01:25:13;;;;;;;126.45;60.03;;;;;;;5.51;93.19;101272.58;1643828;85;27456;-86
2021/11/12 01:27:42;;;;;;;123.97;59.00;;;;;;;5.51;93.30;101267.75;1646380;85;26558;-87
2021/11/12 01:30:11;;;;;;;123.33;58.48;;;;;;;5.50;93.44;101274.88;1641684;85;25831;-86
2021/11/12 01:32:39;;;;;;;118.90;58.40;;;;;;;5.50;93.44;101269.56;1667356;84;25788;-87
2021/11/12 01:35:09;;;;;;;117.65;57.58;;;;;;;5.52;93.46;101266.27;1591654;87;25914;-87
2021/11/12 01:37:36;;;;;;;129.93;62.53;;;;;;;5.55;93.72;101265.16;1640379;86;27536;-87
2021/11/12 01:40:07;;;;;;;126.07;59.55;;;;;;;5.56;93.59;101258.38;1636342;85;25913;-87
2021/11/12 01:43:19;;;;;;;142.32;60.60;;;;;;;5.57;93.58;101258.73;1666765;84;26458;-86
2021/11/12 01:46:20;;;;;;;131.97;57.90;;;;;;;5.59;93.68;101259.92;1652503;86;25894;-86
2021/11/12 01:54:18;;;;;;;133.75;62.23;;;;;;;5.54;94.21;101263.50;1678853;84;25859;-86
2021/11/12 01:56:30;;;;;;;117.40;56.00;;;;;;;5.54;94.29;101266.97;1652409;86;26640;-87
2021/11/12 02:01:47;;;;;;;129.57;59.40;;;;;;;5.56;94.40;101259.70;1651841;86;25749;-86
2021/11/12 02:04:18;;;;;;;119.55;58.28;;;;;;;5.59;94.52;101270.55;1642871;86;27551;-87
2021/11/12 02:06:46;;;;;;;126.40;57.30;;;;;;;5.60;94.54;101275.75;1623617;87;25402;-86
2021/11/12 02:09:20;;;;;;;120.87;57.60;;;;;;;5.61;94.67;101282.72;1605019;87;25832;-86
2021/11/12 02:11:56;;;;;;;124.35;57.75;;;;;;;5.60;94.91;101279.73;1606014;87;26522;-86
2021/11/12 02:14:25;;;;;;;121.80;57.10;;;;;;;5.59;94.90;101274.05;1648550;86;25838;-87
2021/11/12 02:17:14;;;;;;;125.82;60.25;;;;;;;5.60;94.96;101279.73;1611440;86;28120;-87
2021/11/12 02:19:37;;;;;;;117.10;57.67;;;;;;;5.60;95.00;101282.39;1640757;86;26541;-87
2021/11/12 02:22:14;;;;;;;113.45;53.83;;;;;;;5.63;95.18;101286.08;1630463;86;25827;-86
2021/11/12 02:27:23;;;;;;;126.75;61.05;;;;;;;5.66;95.15;101287.15;1620463;86;25867;-86
2021/11/12 02:29:53;;;;;;;112.80;53.08;;;;;;;5.68;95.15;101277.70;1636357;86;27651;-87
2021/11/12 02:32:28;;;;;;;127.92;58.83;;;;;;;5.71;95.26;101272.12;1630595;87;25397;-87
2021/11/12 02:34:59;;;;;;;117.67;57.65;;;;;;;5.71;95.17;101272.93;1627785;87;25956;-87
2021/11/12 02:37:31;;;;;;;114.15;54.45;;;;;;;5.71;95.40;101270.27;1620275;88;25939;-87
2021/11/12 02:39:58;;;;;;;113.30;53.63;;;;;;;5.72;95.31;101276.44;1597920;87;25369;-87
2021/11/12 02:42:26;;;;;;;123.33;55.38;;;;;;;5.72;95.55;101277.28;1647952;86;27636;-86
2021/11/12 02:44:55;;;;;;;114.88;54.42;;;;;;;5.72;95.47;101277.28;1588328;86;26016;-87
2021/11/12 02:47:23;;;;;;;118.80;56.25;;;;;;;5.75;95.60;101285.47;1638838;86;25363;-86
2021/11/12 02:49:52;;;;;;;116.25;55.98;;;;;;;5.76;95.55;101280.49;1612843;86;25827;-86
2021/11/12 02:52:19;;;;;;;120.02;56.18;;;;;;;5.78;95.53;101282.52;1629435;86;25888;-87
2021/11/12 02:54:48;;;;;;;118.57;58.02;;;;;;;5.81;95.56;101288.42;1598134;86;27367;-87
2021/11/12 02:57:16;;;;;;;111.08;53.83;;;;;;;5.82;95.56;101290.08;1610207;86;25940;-86
2021/11/12 02:59:43;;;;;;;108.85;53.08;;;;;;;5.83;95.60;101288.27;1628075;86;25652;-86
2021/11/12 03:02:10;;;;;;;112.15;52.88;;;;;;;5.81;95.70;101285.76;1654256;86;26544;-87
2021/11/12 03:04:37;;;;;;;115.03;53.78;;;;;;;5.81;95.77;101279.11;1609218;86;25336;-87
2021/11/12 03:07:04;;;;;;;106.30;51.02;;;;;;;5.80;95.78;101279.23;1644394;85;27527;-87
2021/11/12 03:09:34;;;;;;;113.52;54.90;;;;;;;5.78;95.86;101274.06;1632079;86;25931;-87
2021/11/12 03:12:05;;;;;;;106.45;51.98;;;;;;;5.77;95.76;101273.73;1663318;85;26043;-87
2021/11/12 03:14:33;;;;;;;115.57;54.10;;;;;;;5.77;96.01;101275.06;1630686;86;26119;-88
2021/11/12 03:17:01;;;;;;;111.52;55.90;;;;;;;5.77;95.92;101280.38;1637309;85;25849;-86
2021/11/12 03:19:30;;;;;;;119.75;55.65;;;;;;;5.80;96.06;101285.88;1631315;85;27532;-88
2021/11/12 03:22:04;;;;;;;112.80;54.23;;;;;;;5.78;95.94;101286.03;1657432;86;25850;-87
2021/11/12 03:24:32;;;;;;;115.37;54.85;;;;;;;5.81;96.00;101292.41;1601554;85;25922;-87
2021/11/12 04:04:52;;;;;;;125.25;55.92;;;;;;;5.89;96.37;101307.68;1651907;86;25948;-87
2021/11/12 04:07:28;;;;;;;119.17;53.02;;;;;;;5.91;96.41;101307.05;1612923;86;25894;-87
2021/11/12 04:18:23;;;;;;;115.10;50.67;;;;;;;5.91;96.58;101301.25;1610776;84;25799;-87
2021/11/12 05:50:14;;;;;;;123.58;51.23;;;;;;;6.19;96.92;101344.30;1673148;84;26024;-83
2021/11/12 05:55:20;;;;;;;137.45;56.10;;;;;;;6.17;96.85;101348.07;1634051;84;26522;-83
2021/11/12 05:57:48;;;;;;;123.85;54.45;;;;;;;6.17;97.03;101346.74;1619770;85;25817;-83
2021/11/12 06:00:18;;;;;;;131.45;54.67;;;;;;;6.16;96.91;101347.22;1666456;85;28335;-83
2021/11/12 06:02:46;;;;;;;120.50;50.90;;;;;;;6.18;96.94;101353.23;1665506;85;25892;-83
2021/11/12 06:05:15;;;;;;;135.93;55.25;;;;;;;6.18;97.01;101363.88;1634239;85;25822;-83
2021/11/12 06:07:42;;;;;;;136.85;54.67;;;;;;;6.21;97.05;101365.42;1649214;85;26354;-83
2021/11/12 06:10:09;;;;;;;140.62;55.15;;;;;;;6.21;96.92;101364.09;1670404;84;26631;-83
2021/11/12 06:12:36;;;;;;;144.68;55.67;;;;;;;6.22;96.92;101366.61;1659355;85;28423;-83
2021/11/12 06:15:05;;;;;;;137.52;56.23;;;;;;;6.24;96.89;101372.63;1624710;85;25879;-82
2021/11/12 06:17:32;;;;;;;138.00;55.60;;;;;;;6.23;96.87;101384.27;1601624;86;25889;-83
2021/11/12 06:20:00;;;;;;;142.77;58.08;;;;;;;6.23;96.93;101385.59;1677256;85;26100;-83
2021/11/12 06:22:27;;;;;;;137.18;59.67;;;;;;;6.22;96.88;101393.72;1669046;85;25830;-83
2021/11/12 06:24:55;;;;;;;150.95;58.48;;;;;;;6.23;96.93;101397.56;1625917;86;27573;-83
2021/11/12 06:27:22;;;;;;;142.62;57.93;;;;;;;6.26;97.02;101391.13;1625731;86;25967;-83
2021/11/12 06:29:49;;;;;;;137.30;53.98;;;;;;;6.27;96.88;101392.80;1680323;84;25901;-83
2021/11/12 06:32:16;;;;;;;138.92;57.53;;;;;;;6.28;96.89;101386.51;1657659;85;26611;-83
2021/11/12 06:34:43;;;;;;;141.65;56.95;;;;;;;6.29;96.86;101387.36;1616098;86;25855;-83
2021/11/12 06:37:11;;;;;;;138.25;56.02;;;;;;;6.31;96.87;101392.86;1640779;85;28280;-83
2021/11/12 06:39:38;;;;;;;137.12;55.03;;;;;;;6.30;96.82;101388.54;1621110;86;25813;-83
2021/11/12 06:42:20;;;;;;;129.93;55.55;;;;;;;6.29;96.88;101393.49;1651479;86;25358;-83
2021/11/12 06:50:16;;;;;;;128.90;53.83;;;;;;;6.31;97.08;101384.88;1670176;85;28104;-83
2021/11/12 06:52:46;;;;;;;142.68;56.42;;;;;;;6.33;97.14;101388.23;1673749;84;25866;-83
2021/11/12 06:55:16;;;;;;;136.30;54.42;;;;;;;6.36;97.13;101388.45;1623496;84;26393;-83
2021/11/12 06:57:45;;;;;;;138.68;58.13;;;;;;;6.37;97.10;101392.33;1590663;86;26649;-83
2021/11/12 07:00:20;;;;;;;141.07;56.05;;;;;;;6.40;97.31;101408.48;1670699;84;25868;-83
2021/11/12 07:02:49;;;;;;;124.80;51.48;;;;;;;6.39;97.12;101405.48;1680917;84;27513;-83
2021/11/12 07:05:17;;;;;;;140.45;56.65;;;;;;;6.40;97.17;101400.49;1659193;85;25947;-83
2021/11/12 07:07:47;;;;;;;144.47;58.80;;;;;;;6.41;97.15;101397.72;1635091;84;25879;-83
2021/11/12 07:10:13;;;;;;;143.70;54.33;;;;;;;6.43;97.16;101397.56;1655342;85;25893;-82
2021/11/12 07:12:40;;;;;;;137.80;53.25;;;;;;;6.45;97.26;101398.27;1672295;85;25816;-83
2021/11/12 07:15:09;;;;;;;137.57;54.25;;;;;;;6.48;97.36;101398.81;1651385;85;27542;-83
2021/11/12 07:17:37;;;;;;;153.00;58.92;;;;;;;6.50;97.33;101401.35;1636492;84;26028;-82
2021/11/12 07:20:05;;;;;;;152.20;58.48;;;;;;;6.51;97.24;101403.02;1674919;84;26438;-82
2021/11/12 07:22:32;;;;;;;145.17;57.03;;;;;;;6.54;97.36;101403.59;1679285;84;25915;-83
2021/11/12 07:24:59;;;;;;;144.90;58.50;;;;;;;6.56;97.37;101404.77;1635374;84;25414;-82
2021/11/12 07:27:26;;;;;;;145.32;54.98;;;;;;;6.58;97.42;101406.31;1673138;84;26978;-82
2021/11/12 07:29:53;;;;;;;148.05;57.88;;;;;;;6.60;97.40;101409.68;1650944;86;25873;-83
2021/11/12 07:32:20;;;;;;;152.82;58.45;;;;;;;6.63;97.45;101405.90;1662296;85;26019;-82
2021/11/12 07:34:50;;;;;;;136.12;55.98;;;;;;;6.66;97.56;101406.92;1599040;85;25838;-83
2021/11/12 07:37:16;;;;;;;133.25;54.58;;;;;;;6.69;97.58;101406.66;1638633;86;25378;-82
2021/11/12 07:42:27;;;;;;;129.27;51.68;;;;;;;6.75;97.60;101396.77;1664822;84;25923;-82
2021/11/12 07:45:00;;;;;;;124.60;51.73;;;;;;;6.79;97.71;101401.66;1624136;84;25932;-83
2021/11/12 07:47:23;;;;;;;115.55;46.60;;;;;;;6.84;97.70;101398.06;1650576;84;26738;-82
2021/11/12 07:49:57;;;;;;;116.25;46.85;;;;;;;6.87;97.59;101396.45;1664442;84;25780;-83
2021/11/12 07:52:28;;;;;;;133.63;52.55;;;;;;;6.89;97.52;101406.47;1665394;84;29288;-82
2021/11/12 07:54:57;;;;;;;127.47;52.25;;;;;;;6.91;97.51;101404.98;1604557;86;26534;-82
2021/11/12 07:57:24;;;;;;;118.22;48.85;;;;;;;6.98;97.75;101400.77;1641002;85;25903;-83
2021/11/12 07:59:51;;;;;;;117.10;48.00;;;;;;;7.03;97.75;101400.67;1667294;85;25855;-82
2021/11/12 08:02:19;;;;;;;120.33;49.35;;;;;;;7.07;97.65;101400.40;1663883;85;26299;-82
2021/11/12 08:04:48;;;;;;;118.62;48.70;;;;;;;7.12;97.67;101402.97;1609475;85;27650;-82
2021/11/12 08:07:16;;;;;;;112.00;49.08;;;;;;;7.18;97.62;101401.56;1645523;85;26019;-82
2021/11/12 08:09:55;;;;;;;115.40;45.92;;;;;;;7.22;97.72;101401.12;1667256;85;25974;-82
2021/11/12 08:12:37;;;;;;;106.20;46.77;;;;;;;7.26;97.63;101399.85;1661920;85;26499;-82
2021/11/12 08:17:38;;;;;;;99.52;44.13;;;;;;;7.35;97.63;101407.46;1621748;85;27365;-84
2021/11/12 08:25:39;;;;;;;110.03;46.23;;;;;;;7.43;97.37;101407.08;1637637;86;25803;-84
2021/11/12 08:38:16;;;;;;;106.05;45.83;;;;;;;7.57;96.90;101414.58;1643504;85;25930;-83
2021/11/12 08:41:02;;;;;;;95.40;41.65;;;;;;;7.61;97.12;101414.62;1660382;85;25918;-82
2021/11/12 08:48:23;;;;;;;100.25;44.80;;;;;;;7.70;96.88;101408.89;1640256;85;25938;-82
2021/11/12 08:50:48;;;;;;;100.72;44.88;;;;;;;7.74;96.84;101411.64;1641305;85;26503;-82
2021/11/12 08:53:17;;;;;;;97.25;42.17;;;;;;;7.76;96.65;101421.14;1662973;85;25969;-81
2021/11/12 08:55:45;;;;;;;103.35;44.25;;;;;;;7.75;96.41;101411.48;1614215;85;27636;-82
2021/11/12 08:58:13;;;;;;;100.33;44.83;;;;;;;7.77;96.48;101408.66;1639558;86;25951;-82
2021/11/12 09:00:43;;;;;;;93.85;41.68;;;;;;;7.80;96.52;101413.19;1659977;85;25364;-84
2021/11/12 09:03:12;;;;;;;99.50;42.30;;;;;;;7.83;96.46;101409.39;1662928;86;25826;-83
2021/11/12 09:05:39;;;;;;;98.20;42.93;;;;;;;7.87;96.55;101409.95;1610171;85;25734;-85
2021/11/12 09:08:06;;;;;;;99.37;45.17;;;;;;;7.92;96.56;101404.98;1648372;85;26653;-84
2021/11/12 09:10:33;;;;;;;91.30;41.13;;;;;;;7.96;96.49;101409.02;1654129;84;25383;-85
2021/11/12 09:13:16;;;;;;;91.55;41.00;;;;;;;7.98;96.19;101415.05;1663428;85;25940;-84
2021/11/12 09:15:35;;;;;;;97.10;44.77;;;;;;;7.98;96.02;101409.23;1607207;86;26499;-84
2021/11/12 09:18:03;;;;;;;100.00;43.55;;;;;;;7.97;96.00;101412.90;1602353;86;25880;-84
2021/11/12 09:20:30;;;;;;;89.25;42.67;;;;;;;7.99;96.08;101413.59;1676783;85;28320;-84
2021/11/12 09:22:59;;;;;;;95.03;43.75;;;;;;;8.03;96.05;101422.12;1670345;85;25834;-84
2021/11/12 09:25:27;;;;;;;98.82;44.05;;;;;;;8.06;96.11;101417.83;1647639;85;25845;-85
2021/11/12 09:27:54;;;;;;;96.92;43.60;;;;;;;8.09;96.00;101409.02;1636397;84;25900;-85
2021/11/12 09:30:25;;;;;;;97.22;44.27;;;;;;;8.13;96.18;101407.72;1674661;85;26110;-85
2021/11/12 09:32:55;;;;;;;92.82;41.08;;;;;;;8.19;96.12;101408.96;1632150;86;27509;-85
2021/11/12 09:35:23;;;;;;;93.45;43.10;;;;;;;8.21;96.11;101402.45;1658633;85;26019;-84
2021/11/12 09:37:52;;;;;;;99.22;44.23;;;;;;;8.23;95.73;101406.33;1664406;86;25779;-83
2021/11/12 09:40:22;;;;;;;89.13;42.88;;;;;;;8.21;95.53;101402.98;1645052;85;26624;-82
2021/11/12 09:42:51;;;;;;;92.45;43.17;;;;;;;8.24;95.59;101402.16;1620612;87;25934;-83
2021/11/12 09:45:21;;;;;;;98.62;46.98;;;;;;;8.29;95.70;101397.74;1658468;85;27545;-83
2021/11/12 09:47:51;;;;;;;86.95;41.73;;;;;;;8.33;95.75;101392.44;1659676;86;25321;-83
2021/11/12 09:50:26;;;;;;;92.53;43.70;;;;;;;8.36;95.53;101396.15;1636275;85;25872;-83
2021/11/12 09:52:54;;;;;;;84.85;41.65;;;;;;;8.35;95.18;101407.31;1617046;86;26027;-84
2021/11/12 09:55:22;;;;;;;87.53;42.30;;;;;;;8.32;94.91;101407.61;1640640;85;26229;-84
2021/11/12 09:57:50;;;;;;;94.92;43.75;;;;;;;8.32;94.89;101394.26;1641856;85;27496;-83
2021/11/12 10:00:22;;;;;;;90.12;43.42;;;;;;;8.32;94.90;101397.42;1653864;85;25957;-83
2021/11/12 10:02:50;;;;;;;97.70;44.20;;;;;;;8.32;95.00;101393.41;1648531;85;25840;-84
2021/11/12 10:05:44;;;;;;;94.25;45.83;;;;;;;8.36;95.08;101400.16;1591559;85;25998;-83
2021/11/12 10:08:31;;;;;;;90.32;43.52;;;;;;;8.40;95.15;101405.52;1663286;85;25813;-83
2021/11/12 10:11:03;;;;;;;97.95;44.85;;;;;;;8.45;95.10;101400.05;1643533;85;27350;-83
2021/11/12 10:13:36;;;;;;;93.90;42.65;;;;;;;8.47;94.78;101399.89;1639075;86;26695;-84
2021/11/12 10:19:03;;;;;;;113.28;48.50;;;;;;;8.48;94.55;101395.75;1652752;85;26013;-83
2021/11/12 10:21:41;;;;;;;103.72;45.23;;;;;;;8.49;94.79;101395.23;1643607;85;25892;-83
2021/11/12 10:24:16;;;;;;;108.10;49.55;;;;;;;8.50;94.76;101403.11;1656730;85;27495;-84
2021/11/12 10:26:51;;;;;;;100.45;49.03;;;;;;;8.57;95.13;101398.00;1656998;85;25815;-83
2021/11/12 10:29:23;;;;;;;107.70;47.23;;;;;;;8.64;95.12;101395.55;1657463;85;25342;-83
2021/11/12 10:31:57;;;;;;;101.53;46.40;;;;;;;8.65;94.68;101386.04;1660229;85;26479;-84
2021/11/12 10:34:28;;;;;;;109.20;48.55;;;;;;;8.67;94.58;101392.06;1616749;86;25796;-84
2021/11/12 10:37:12;;;;;;;95.20;46.05;;;;;;;8.68;94.38;101383.56;1628383;86;28219;-83
2021/11/12 10:39:46;;;;;;;93.37;44.77;;;;;;;8.71;94.33;101388.57;1677046;84;25881;-83
2021/11/12 10:42:20;;;;;;;92.85;46.95;;;;;;;8.72;94.27;101381.77;1672773;84;25335;-84
2021/11/12 10:44:52;;;;;;;103.50;46.65;;;;;;;8.72;94.23;101381.77;1627685;87;25868;-84
2021/11/12 10:47:21;;;;;;;96.40;46.73;;;;;;;8.76;94.40;101379.61;1638468;86;25388;-83
2021/11/12 10:50:03;;;;;;;95.32;46.95;;;;;;;8.80;94.35;101383.15;1684804;84;27465;-84
2021/11/12 10:52:31;;;;;;;105.15;47.67;;;;;;;8.80;93.90;101373.80;1652966;85;25940;-84
2021/11/12 10:55:16;;;;;;;102.20;50.12;;;;;;;8.84;94.23;101378.32;1633792;86;25835;-83
2021/11/12 10:57:54;;;;;;;105.85;49.03;;;;;;;8.86;94.08;101371.83;1644763;86;26328;-83
2021/11/12 11:00:34;;;;;;;99.60;48.05;;;;;;;8.89;94.17;101375.54;1654383;86;26684;-83
2021/11/12 11:03:11;;;;;;;102.27;48.90;;;;;;;8.91;94.03;101370.03;1621236;86;27522;-82
2021/11/12 11:06:03;;;;;;;104.43;51.45;;;;;;;8.94;93.73;101375.07;1629059;86;25897;-83
2021/11/12 11:08:34;;;;;;;101.20;46.53;;;;;;;8.93;93.52;101368.03;1639820;85;25879;-83
2021/11/12 11:11:05;;;;;;;109.20;54.13;;;;;;;8.86;93.11;101363.81;1662997;85;26587;-82
2021/11/12 11:13:37;;;;;;;120.80;58.73;;;;;;;8.83;92.91;101364.64;1633245;86;25856;-83
2021/11/12 11:16:08;;;;;;;124.18;58.92;;;;;;;8.79;93.17;101352.59;1628438;86;27510;-83
2021/11/12 11:18:43;;;;;;;;;;;;;;;8.76;93.19;101356.41;1639692;86;25814;-83
2021/11/12 11:24:00;;;;;;;111.50;53.95;;;;;;;8.76;93.50;101352.89;1660067;86;25725;-83
2021/11/12 11:26:46;;;;;;;109.32;52.67;;;;;;;8.76;93.28;101352.89;1664726;85;25758;-84
2021/11/12 11:29:17;;;;;;;115.42;53.45;;;;;;;8.76;93.29;101351.07;1656375;86;27452;-83
2021/11/12 11:31:45;;;;;;;127.72;56.60;;;;;;;8.77;93.34;101342.05;1664041;85;26636;-83
2021/11/12 11:34:12;;;;;;;118.02;53.10;;;;;;;8.82;93.49;101345.58;1575055;85;26278;-83
2021/11/12 11:36:45;;;;;;;115.50;52.13;;;;;;;8.85;93.53;101342.61;1623034;85;25875;-83
2021/11/12 11:39:16;;;;;;;114.55;53.87;;;;;;;8.88;93.31;101344.95;1637420;86;25694;-82
2021/11/12 11:41:50;;;;;;;121.87;56.25;;;;;;;8.85;93.16;101342.13;1666780;85;27535;-83
2021/11/12 11:44:19;;;;;;;126.47;58.15;;;;;;;8.82;93.02;101343.76;1619720;86;25884;-84
2021/11/12 11:46:50;;;;;;;122.42;56.55;;;;;;;8.83;93.24;101344.08;1649246;85;25833;-84
2021/11/12 11:49:24;;;;;;;140.52;65.25;;;;;;;8.85;93.16;101338.11;1662790;84;26725;-83
2021/11/12 11:51:59;;;;;;;114.28;55.15;;;;;;;8.88;93.11;101340.94;1657562;86;25985;-83
2021/11/12 11:54:29;;;;;;;118.90;59.30;;;;;;;8.92;93.23;101339.63;1626455;85;27460;-83
2021/11/12 11:57:00;;;;;;;118.28;55.30;;;;;;;8.95;93.13;101331.31;1643280;85;26541;-82
2021/11/12 11:59:34;;;;;;;111.90;54.67;;;;;;;8.97;93.14;101332.83;1653878;85;25871;-84
2021/11/12 12:02:03;;;;;;;116.42;55.52;;;;;;;9.00;93.16;101335.16;1652643;85;25826;-84
2021/11/12 12:04:32;;;;;;;;;;;;;;;9.04;93.17;101332.55;1630780;84;25808;-83
2021/11/12 12:07:12;;;;;;;105.32;49.95;;;;;;;9.06;93.19;101331.89;1632326;85;27493;-83
2021/11/12 12:09:48;;;;;;;115.60;55.80;;;;;;;9.03;92.97;101328.19;1640043;85;26316;-83
2021/11/12 12:12:35;;;;;;;128.55;72.45;;;;;;;9.04;93.03;101319.19;1662022;84;25913;-83
2021/11/12 12:15:15;;;;;;;148.13;82.65;;;;;;;9.07;93.09;101322.86;1669340;84;26744;-83
2021/11/12 12:17:46;;;;;;;126.53;66.92;;;;;;;9.11;93.16;101326.88;1639960;85;25969;-83
2021/11/12 12:34:57;;;;;;;102.97;51.13;;;;;;;9.11;92.60;101304.69;1651480;85;27441;-84
2021/11/12 12:40:38;;;;;;;110.70;53.40;;;;;;;9.11;92.18;101305.50;1651182;85;25916;-83
2021/11/12 13:20:45;;;;;;;108.35;51.98;;;;;;;9.15;91.97;101304.17;1626274;86;26269;-84
2021/11/12 13:25:52;;;;;;;115.03;52.83;;;;;;;9.16;92.38;101302.34;1641542;86;25976;-83
2021/11/12 13:28:35;;;;;;;112.35;53.95;;;;;;;9.16;92.29;101291.66;1638123;86;25632;-83
2021/11/12 13:31:19;;;;;;;97.75;50.35;;;;;;;9.16;92.07;101295.17;1635340;86;27626;-83
2021/11/12 13:33:54;;;;;;;103.40;51.02;;;;;;;9.12;91.84;101293.83;1610016;87;25993;-83
2021/11/12 13:36:35;;;;;;;104.00;52.73;;;;;;;9.10;91.94;101298.98;1631129;87;25929;-84
2021/11/12 13:39:11;;;;;;;94.95;49.42;;;;;;;9.09;92.00;101295.96;1638025;86;35970;-83
2021/11/12 13:41:49;;;;;;;101.10;51.10;;;;;;;9.07;92.03;101297.95;1632415;86;25830;-84
2021/11/12 13:44:21;;;;;;;108.10;54.38;;;;;;;9.07;92.09;101299.30;1596391;87;27369;-83
2021/11/12 13:46:58;;;;;;;97.92;51.70;;;;;;;9.09;92.23;101297.30;1630386;87;25917;-84
2021/11/12 13:49:45;;;;;;;101.12;50.20;;;;;;;9.12;92.23;101304.52;1646720;86;26009;-84
2021/11/12 13:52:23;;;;;;;99.75;50.92;;;;;;;9.13;92.28;101303.50;1604290;86;26962;-83
2021/11/12 13:54:55;;;;;;;104.32;53.50;;;;;;;9.16;92.24;101307.70;1586955;87;25943;-84
2021/11/12 13:57:26;;;;;;;104.75;52.60;;;;;;;9.15;92.04;101306.84;1637974;86;27472;-84
2021/11/12 14:00:01;;;;;;;100.35;50.30;;;;;;;9.15;92.01;101308.19;1665020;85;26387;-84
2021/11/12 14:02:51;;;;;;;94.80;48.63;;;;;;;9.16;91.80;101306.36;1628969;86;25383;-84
2021/11/12 14:05:19;;;;;;;87.00;44.95;;;;;;;9.11;91.82;101308.70;1633482;86;25937;-83
2021/11/12 14:07:46;;;;;;;91.40;49.70;;;;;;;9.12;91.87;101310.35;1635736;86;25842;-83
2021/11/12 14:10:16;;;;;;;99.28;48.60;;;;;;;9.13;91.81;101305.36;1660510;86;27499;-83
2021/11/12 14:12:54;;;;;;;89.60;47.55;;;;;;;9.12;91.75;101307.68;1631333;86;25346;-83
2021/11/12 14:15:30;;;;;;;91.85;46.95;;;;;;;9.14;91.76;101309.69;1614403;86;25984;-84
2021/11/12 14:21:31;;;;;;;102.90;47.73;;;;;;;9.13;91.66;101321.40;1655963;85;25501;-83
2021/11/12 14:26:46;;;;;;;102.87;48.55;;;;;;;9.13;91.79;101315.53;1641549;85;26516;-84
2021/11/12 14:29:14;;;;;;;100.22;50.12;;;;;;;9.14;91.81;101325.23;1655240;86;25845;-83
2021/11/12 14:39:56;;;;;;;102.42;48.68;;;;;;;9.13;91.64;101318.20;1679600;85;25866;-84
2021/11/12 14:53:31;;;;;;;104.35;48.42;;;;;;;9.10;91.58;101311.86;1661239;85;25896;-84
2021/11/12 14:58:47;;;;;;;98.78;47.85;;;;;;;9.10;91.53;101311.02;1627755;85;25942;-83
2021/11/12 15:01:21;;;;;;;101.78;48.20;;;;;;;9.08;91.49;101314.34;1657749;86;26076;-83
2021/11/12 15:03:50;;;;;;;101.35;48.85;;;;;;;9.08;91.57;101317.86;1667681;85;27578;-84
2021/11/12 15:06:21;;;;;;;98.78;46.92;;;;;;;9.09;91.64;101321.35;1621275;84;26347;-84
2021/11/12 15:08:59;;;;;;;108.57;52.25;;;;;;;9.10;91.62;101319.03;1615295;85;25853;-84
2021/11/12 15:11:28;;;;;;;111.75;59.03;;;;;;;9.11;91.52;101324.20;1659328;86;25827;-85
2021/11/12 15:14:09;;;;;;;99.50;49.83;;;;;;;9.11;91.52;101326.88;1661547;86;25361;-84
2021/11/12 15:16:37;;;;;;;95.20;46.83;;;;;;;9.12;91.48;101331.73;1630202;86;28424;-83
2021/11/12 15:19:06;;;;;;;94.65;47.75;;;;;;;9.12;91.47;101327.72;1635258;85;26617;-83
2021/11/12 15:21:37;;;;;;;92.53;49.03;;;;;;;9.12;91.44;101331.73;1669211;84;25900;-83
2021/11/12 15:27:08;;;;;;;85.83;45.28;;;;;;;9.12;91.35;101331.73;1626407;85;25989;-83
2021/11/12 15:29:31;;;;;;;91.10;45.20;;;;;;;9.10;91.27;101336.41;1624072;85;27459;-83
2021/11/12 15:34:47;;;;;;;79.60;42.90;;;;;;;9.09;91.40;101328.87;1633980;85;25950;-83
2021/11/12 15:37:13;;;;;;;92.40;46.77;;;;;;;9.09;91.34;101334.71;1621910;86;25972;-84
2021/11/12 15:39:51;;;;;;;85.40;43.33;;;;;;;9.09;91.38;101333.38;1613668;85;25878;-83
2021/11/12 15:45:00;;;;;;;97.27;48.35;;;;;;;9.09;91.27;101346.25;1661271;85;25877;-84
2021/11/12 15:47:26;;;;;;;92.67;47.70;;;;;;;9.09;91.30;101337.38;1592103;86;25663;-84
2021/11/12 15:50:07;;;;;;;86.15;45.15;;;;;;;9.08;91.25;101337.06;1633392;86;25798;-84
2021/11/12 15:52:39;;;;;;;90.30;46.63;;;;;;;9.08;91.23;101339.25;1653608;85;26076;-83
2021/11/12 15:55:21;;;;;;;84.28;46.73;;;;;;;9.08;91.24;101339.73;1656507;85;28355;-84
2021/11/12 16:03:07;;;;;;;89.45;46.75;;;;;;;9.09;91.12;101344.91;1654671;85;25857;-83
2021/11/12 16:21:04;;;;;;;87.90;46.30;;;;;;;9.05;91.08;101350.23;1621941;85;27227;-83
2021/11/12 16:26:07;;;;;;;90.40;44.88;;;;;;;9.05;91.08;101362.75;1654910;85;25846;-83
2021/11/12 16:28:50;;;;;;;83.67;44.03;;;;;;;9.04;91.17;101354.42;1634947;86;26902;-83
2021/11/12 16:31:04;;;;;;;81.47;44.83;;;;;;;9.03;91.16;101357.58;1637780;85;25927;-83
2021/11/12 16:33:31;;;;;;;82.42;43.95;;;;;;;9.02;91.10;101359.92;1649607;85;27547;-83
2021/11/12 16:36:05;;;;;;;77.12;42.08;;;;;;;9.03;91.16;101355.39;1663264;85;25938;-83
2021/11/12 16:38:32;;;;;;;75.80;40.73;;;;;;;9.04;91.10;101359.27;1599137;85;25895;-83
2021/11/12 16:41:06;;;;;;;83.63;43.10;;;;;;;9.04;91.08;101362.43;1613305;85;26779;-83
2021/11/12 16:43:37;;;;;;;88.40;43.78;;;;;;;9.03;91.06;101367.42;1649311;85;25847;-83
2021/11/12 16:59:13;;;;;;;133.35;57.48;;;;;;;8.87;91.04;101361.50;1633020;85;27477;-83
2021/11/12 17:04:38;;;;;;;137.57;55.43;;;;;;;8.86;91.23;101361.14;1624539;86;25866;-82
2021/11/12 17:10:08;;;;;;;151.68;60.43;;;;;;;8.82;91.30;101363.80;1646884;85;26594;-84
2021/11/12 17:15:19;;;;;;;155.37;58.38;;;;;;;8.77;91.32;101364.75;1596472;87;26004;-83
2021/11/12 17:45:03;;;;;;;174.77;66.42;;;;;;;8.65;91.69;101345.13;1652923;85;25855;-83